sensor_id;sensor_type;location;lat;lon;timestamp;P1;durP1;ratioP1;P2;durP2;ratioP2
41077;SDS011;26823;42.662;23.352;2022-09-28T00:01:36;9.07;;;5.65;;
41077;SDS011;26823;42.662;23.352;2022-09-28T00:04:01;11.73;;;6.50;;
41077;SDS011;26823;42.662;23.352;2022-09-28T00:06:28;8.90;;;6.55;;
41077;SDS011;26823;42.662;23.352;2022-09-28T00:08:54;9.60;;;6.07;;
41077;SDS011;26823;42.662;23.352;2022-09-28T00:11:21;7.97;;;5.47;;
41077;SDS011;26823;42.662;23.352;2022-09-28T00:13:51;8.85;;;5.78;;
41077;SDS011;26823;42.662;23.352;2022-09-28T00:16:21;11.40;;;5.85;;
41077;SDS011;26823;42.662;23.352;2022-09-28T00:18:49;8.82;;;6.28;;
41077;SDS011;26823;42.662;23.352;2022-09-28T00:21:16;9.75;;;6.53;;
41077;SDS011;26823;42.662;23.352;2022-09-28T00:23:53;9.07;;;6.82;;
41077;SDS011;26823;42.662;23.352;2022-09-28T00:26:49;7.70;;;6.35;;
41077;SDS011;26823;42.662;23.352;2022-09-28T00:29:21;8.57;;;6.32;;
41077;SDS011;26823;42.662;23.352;2022-09-28T00:31:47;9.75;;;6.20;;
41077;SDS011;26823;42.662;23.352;2022-09-28T00:34:16;7.53;;;5.70;;
41077;SDS011;26823;42.662;23.352;2022-09-28T00:36:42;7.35;;;5.68;;
41077;SDS011;26823;42.662;23.352;2022-09-28T00:39:10;10.98;;;6.88;;
41077;SDS011;26823;42.662;23.352;2022-09-28T00:41:35;6.43;;;5.65;;
41077;SDS011;26823;42.662;23.352;2022-09-28T00:46:49;7.75;;;6.05;;
41077;SDS011;26823;42.662;23.352;2022-09-28T00:49:19;8.02;;;5.38;;
41077;SDS011;26823;42.662;23.352;2022-09-28T00:51:54;7.47;;;5.80;;
41077;SDS011;26823;42.662;23.352;2022-09-28T00:54:20;7.90;;;5.80;;
41077;SDS011;26823;42.662;23.352;2022-09-28T00:56:46;7.47;;;5.60;;
41077;SDS011;26823;42.662;23.352;2022-09-28T00:59:12;8.05;;;5.18;;
41077;SDS011;26823;42.662;23.352;2022-09-28T01:01:38;8.75;;;5.55;;
41077;SDS011;26823;42.662;23.352;2022-09-28T01:04:04;6.85;;;4.82;;
41077;SDS011;26823;42.662;23.352;2022-09-28T01:06:32;7.70;;;5.57;;
41077;SDS011;26823;42.662;23.352;2022-09-28T01:09:00;9.05;;;5.65;;
41077;SDS011;26823;42.662;23.352;2022-09-28T01:11:32;9.00;;;5.43;;
41077;SDS011;26823;42.662;23.352;2022-09-28T01:14:00;7.72;;;5.65;;
41077;SDS011;26823;42.662;23.352;2022-09-28T01:22:19;5.53;;;4.75;;
41077;SDS011;26823;42.662;23.352;2022-09-28T01:25:00;5.53;;;4.70;;
41077;SDS011;26823;42.662;23.352;2022-09-28T01:30:19;7.68;;;5.13;;
41077;SDS011;26823;42.662;23.352;2022-09-28T01:32:50;7.88;;;5.18;;
41077;SDS011;26823;42.662;23.352;2022-09-28T01:40:44;7.50;;;4.90;;
41077;SDS011;26823;42.662;23.352;2022-09-28T01:43:16;8.43;;;5.22;;
41077;SDS011;26823;42.662;23.352;2022-09-28T01:45:48;7.35;;;4.93;;
41077;SDS011;26823;42.662;23.352;2022-09-28T01:48:22;9.05;;;4.65;;
41077;SDS011;26823;42.662;23.352;2022-09-28T01:51:00;8.27;;;5.85;;
41077;SDS011;26823;42.662;23.352;2022-09-28T01:53:34;9.23;;;5.57;;
41077;SDS011;26823;42.662;23.352;2022-09-28T01:56:17;7.00;;;4.90;;
41077;SDS011;26823;42.662;23.352;2022-09-28T01:58:48;7.60;;;4.85;;
41077;SDS011;26823;42.662;23.352;2022-09-28T02:01:30;6.35;;;4.78;;
41077;SDS011;26823;42.662;23.352;2022-09-28T02:06:43;6.68;;;4.93;;
41077;SDS011;26823;42.662;23.352;2022-09-28T02:09:34;5.13;;;4.10;;
41077;SDS011;26823;42.662;23.352;2022-09-28T02:12:08;6.30;;;4.30;;
41077;SDS011;26823;42.662;23.352;2022-09-28T02:14:57;4.97;;;4.03;;
41077;SDS011;26823;42.662;23.352;2022-09-28T02:17:30;5.07;;;4.20;;
41077;SDS011;26823;42.662;23.352;2022-09-28T02:19:56;6.43;;;5.15;;
41077;SDS011;26823;42.662;23.352;2022-09-28T02:25:05;5.45;;;4.28;;
41077;SDS011;26823;42.662;23.352;2022-09-28T02:27:41;6.68;;;5.28;;
41077;SDS011;26823;42.662;23.352;2022-09-28T02:30:09;6.20;;;4.78;;
41077;SDS011;26823;42.662;23.352;2022-09-28T02:32:37;6.85;;;5.25;;
41077;SDS011;26823;42.662;23.352;2022-09-28T02:35:10;7.57;;;5.50;;
41077;SDS011;26823;42.662;23.352;2022-09-28T02:37:38;7.97;;;5.80;;
41077;SDS011;26823;42.662;23.352;2022-09-28T02:40:27;11.00;;;5.63;;
41077;SDS011;26823;42.662;23.352;2022-09-28T02:53:50;10.48;;;5.50;;
41077;SDS011;26823;42.662;23.352;2022-09-28T03:07:35;6.20;;;4.78;;
41077;SDS011;26823;42.662;23.352;2022-09-28T03:13:01;8.48;;;5.20;;
41077;SDS011;26823;42.662;23.352;2022-09-28T03:15:29;9.10;;;5.75;;
41077;SDS011;26823;42.662;23.352;2022-09-28T03:17:56;8.43;;;5.65;;
41077;SDS011;26823;42.662;23.352;2022-09-28T03:20:22;7.85;;;5.85;;
41077;SDS011;26823;42.662;23.352;2022-09-28T03:22:49;6.95;;;5.75;;
41077;SDS011;26823;42.662;23.352;2022-09-28T03:25:14;9.32;;;5.57;;
41077;SDS011;26823;42.662;23.352;2022-09-28T03:27:40;9.75;;;5.22;;
41077;SDS011;26823;42.662;23.352;2022-09-28T03:30:06;9.32;;;5.20;;
41077;SDS011;26823;42.662;23.352;2022-09-28T03:32:33;8.55;;;5.70;;
41077;SDS011;26823;42.662;23.352;2022-09-28T03:34:58;11.25;;;6.00;;
41077;SDS011;26823;42.662;23.352;2022-09-28T03:37:25;8.60;;;5.63;;
41077;SDS011;26823;42.662;23.352;2022-09-28T03:39:51;7.43;;;5.63;;
41077;SDS011;26823;42.662;23.352;2022-09-28T03:42:16;7.63;;;5.43;;
41077;SDS011;26823;42.662;23.352;2022-09-28T03:44:42;8.65;;;5.88;;
41077;SDS011;26823;42.662;23.352;2022-09-28T03:47:07;6.03;;;5.30;;
41077;SDS011;26823;42.662;23.352;2022-09-28T03:49:33;9.25;;;5.50;;
41077;SDS011;26823;42.662;23.352;2022-09-28T03:51:59;10.55;;;5.35;;
41077;SDS011;26823;42.662;23.352;2022-09-28T03:54:24;7.75;;;5.15;;
41077;SDS011;26823;42.662;23.352;2022-09-28T03:56:50;7.68;;;5.68;;
41077;SDS011;26823;42.662;23.352;2022-09-28T03:59:16;8.05;;;6.13;;
41077;SDS011;26823;42.662;23.352;2022-09-28T04:01:41;7.22;;;5.53;;
41077;SDS011;26823;42.662;23.352;2022-09-28T04:04:09;7.50;;;5.13;;
41077;SDS011;26823;42.662;23.352;2022-09-28T04:06:36;7.75;;;5.63;;
41077;SDS011;26823;42.662;23.352;2022-09-28T04:09:01;6.03;;;4.93;;
41077;SDS011;26823;42.662;23.352;2022-09-28T04:11:26;8.75;;;5.38;;
41077;SDS011;26823;42.662;23.352;2022-09-28T04:13:52;7.40;;;4.75;;
41077;SDS011;26823;42.662;23.352;2022-09-28T04:16:17;7.05;;;4.65;;
41077;SDS011;26823;42.662;23.352;2022-09-28T04:18:43;8.93;;;5.88;;
41077;SDS011;26823;42.662;23.352;2022-09-28T04:21:11;6.35;;;4.95;;
41077;SDS011;26823;42.662;23.352;2022-09-28T04:23:39;7.13;;;5.47;;
41077;SDS011;26823;42.662;23.352;2022-09-28T04:26:06;6.32;;;4.95;;
41077;SDS011;26823;42.662;23.352;2022-09-28T04:28:40;6.90;;;4.97;;
41077;SDS011;26823;42.662;23.352;2022-09-28T04:31:24;7.65;;;4.85;;
41077;SDS011;26823;42.662;23.352;2022-09-28T04:33:50;10.15;;;5.43;;
41077;SDS011;26823;42.662;23.352;2022-09-28T04:36:15;7.25;;;5.47;;
41077;SDS011;26823;42.662;23.352;2022-09-28T04:38:43;7.57;;;5.95;;
41077;SDS011;26823;42.662;23.352;2022-09-28T04:41:09;9.32;;;5.97;;
41077;SDS011;26823;42.662;23.352;2022-09-28T04:43:36;10.07;;;6.13;;
41077;SDS011;26823;42.662;23.352;2022-09-28T04:46:01;10.98;;;6.32;;
41077;SDS011;26823;42.662;23.352;2022-09-28T04:48:29;8.05;;;5.53;;
41077;SDS011;26823;42.662;23.352;2022-09-28T04:50:55;7.10;;;6.00;;
41077;SDS011;26823;42.662;23.352;2022-09-28T04:53:23;8.13;;;5.35;;
41077;SDS011;26823;42.662;23.352;2022-09-28T04:55:59;7.88;;;5.80;;
41077;SDS011;26823;42.662;23.352;2022-09-28T04:58:26;9.05;;;5.78;;
41077;SDS011;26823;42.662;23.352;2022-09-28T05:00:55;9.68;;;5.90;;
41077;SDS011;26823;42.662;23.352;2022-09-28T05:03:22;9.20;;;5.95;;
41077;SDS011;26823;42.662;23.352;2022-09-28T05:05:48;12.02;;;5.72;;
41077;SDS011;26823;42.662;23.352;2022-09-28T05:08:13;9.00;;;6.68;;
41077;SDS011;26823;42.662;23.352;2022-09-28T05:10:39;7.43;;;5.43;;
41077;SDS011;26823;42.662;23.352;2022-09-28T05:13:05;13.00;;;8.00;;
41077;SDS011;26823;42.662;23.352;2022-09-28T05:15:33;11.60;;;7.18;;
41077;SDS011;26823;42.662;23.352;2022-09-28T05:17:59;9.63;;;6.53;;
41077;SDS011;26823;42.662;23.352;2022-09-28T05:20:24;11.18;;;7.35;;
41077;SDS011;26823;42.662;23.352;2022-09-28T05:22:50;10.13;;;6.95;;
41077;SDS011;26823;42.662;23.352;2022-09-28T05:25:15;10.93;;;7.57;;
41077;SDS011;26823;42.662;23.352;2022-09-28T05:27:41;11.05;;;7.40;;
41077;SDS011;26823;42.662;23.352;2022-09-28T05:30:07;10.43;;;7.35;;
41077;SDS011;26823;42.662;23.352;2022-09-28T05:32:38;9.48;;;7.20;;
41077;SDS011;26823;42.662;23.352;2022-09-28T05:35:04;11.23;;;7.47;;
41077;SDS011;26823;42.662;23.352;2022-09-28T05:37:30;13.75;;;8.73;;
41077;SDS011;26823;42.662;23.352;2022-09-28T05:39:55;16.08;;;9.75;;
41077;SDS011;26823;42.662;23.352;2022-09-28T05:42:21;17.42;;;9.70;;
41077;SDS011;26823;42.662;23.352;2022-09-28T05:44:46;15.50;;;9.93;;
41077;SDS011;26823;42.662;23.352;2022-09-28T05:47:12;14.90;;;9.55;;
41077;SDS011;26823;42.662;23.352;2022-09-28T05:49:37;13.18;;;9.73;;
41077;SDS011;26823;42.662;23.352;2022-09-28T05:52:03;13.30;;;8.93;;
41077;SDS011;26823;42.662;23.352;2022-09-28T05:54:28;15.60;;;9.98;;
41077;SDS011;26823;42.662;23.352;2022-09-28T05:56:53;19.10;;;9.32;;
41077;SDS011;26823;42.662;23.352;2022-09-28T05:59:19;13.63;;;9.40;;
41077;SDS011;26823;42.662;23.352;2022-09-28T06:01:44;14.82;;;10.95;;
41077;SDS011;26823;42.662;23.352;2022-09-28T06:04:09;18.80;;;10.57;;
41077;SDS011;26823;42.662;23.352;2022-09-28T06:06:35;16.42;;;10.52;;
41077;SDS011;26823;42.662;23.352;2022-09-28T06:09:02;17.45;;;10.43;;
41077;SDS011;26823;42.662;23.352;2022-09-28T06:11:28;16.70;;;11.23;;
41077;SDS011;26823;42.662;23.352;2022-09-28T06:13:53;14.88;;;10.50;;
41077;SDS011;26823;42.662;23.352;2022-09-28T06:16:19;14.35;;;10.27;;
41077;SDS011;26823;42.662;23.352;2022-09-28T06:18:45;14.85;;;10.65;;
41077;SDS011;26823;42.662;23.352;2022-09-28T06:21:11;13.45;;;10.57;;
41077;SDS011;26823;42.662;23.352;2022-09-28T06:23:37;15.60;;;10.20;;
41077;SDS011;26823;42.662;23.352;2022-09-28T06:26:02;16.05;;;11.15;;
41077;SDS011;26823;42.662;23.352;2022-09-28T06:28:27;17.63;;;10.55;;
41077;SDS011;26823;42.662;23.352;2022-09-28T06:30:53;18.80;;;11.05;;
41077;SDS011;26823;42.662;23.352;2022-09-28T06:33:18;18.52;;;11.00;;
41077;SDS011;26823;42.662;23.352;2022-09-28T06:35:44;18.55;;;11.20;;
41077;SDS011;26823;42.662;23.352;2022-09-28T06:38:09;18.63;;;11.82;;
41077;SDS011;26823;42.662;23.352;2022-09-28T06:40:35;16.02;;;11.48;;
41077;SDS011;26823;42.662;23.352;2022-09-28T06:43:02;18.48;;;12.55;;
41077;SDS011;26823;42.662;23.352;2022-09-28T06:45:36;18.02;;;11.45;;
41077;SDS011;26823;42.662;23.352;2022-09-28T06:48:03;17.80;;;12.88;;
41077;SDS011;26823;42.662;23.352;2022-09-28T06:50:30;20.90;;;11.95;;
41077;SDS011;26823;42.662;23.352;2022-09-28T06:52:58;19.38;;;12.50;;
41077;SDS011;26823;42.662;23.352;2022-09-28T06:55:24;21.88;;;14.43;;
41077;SDS011;26823;42.662;23.352;2022-09-28T06:57:57;20.90;;;14.38;;
41077;SDS011;26823;42.662;23.352;2022-09-28T07:00:29;19.77;;;11.75;;
41077;SDS011;26823;42.662;23.352;2022-09-28T07:02:58;24.02;;;11.63;;
41077;SDS011;26823;42.662;23.352;2022-09-28T07:05:25;19.17;;;12.45;;
41077;SDS011;26823;42.662;23.352;2022-09-28T07:08:01;19.38;;;12.43;;
41077;SDS011;26823;42.662;23.352;2022-09-28T07:10:27;20.60;;;11.90;;
41077;SDS011;26823;42.662;23.352;2022-09-28T07:12:55;21.08;;;12.82;;
41077;SDS011;26823;42.662;23.352;2022-09-28T07:15:22;24.83;;;13.23;;
41077;SDS011;26823;42.662;23.352;2022-09-28T07:17:48;21.95;;;13.30;;
41077;SDS011;26823;42.662;23.352;2022-09-28T07:20:14;25.05;;;14.07;;
41077;SDS011;26823;42.662;23.352;2022-09-28T07:22:41;21.63;;;12.95;;
41077;SDS011;26823;42.662;23.352;2022-09-28T07:25:07;21.63;;;12.90;;
41077;SDS011;26823;42.662;23.352;2022-09-28T07:27:33;21.98;;;13.13;;
41077;SDS011;26823;42.662;23.352;2022-09-28T07:30:03;20.63;;;12.48;;
41077;SDS011;26823;42.662;23.352;2022-09-28T07:32:29;18.83;;;11.98;;
41077;SDS011;26823;42.662;23.352;2022-09-28T07:34:56;18.90;;;11.45;;
41077;SDS011;26823;42.662;23.352;2022-09-28T07:37:21;19.75;;;11.80;;
41077;SDS011;26823;42.662;23.352;2022-09-28T07:39:50;19.38;;;13.07;;
41077;SDS011;26823;42.662;23.352;2022-09-28T07:42:34;21.55;;;12.43;;
41077;SDS011;26823;42.662;23.352;2022-09-28T07:45:00;17.58;;;10.90;;
41077;SDS011;26823;42.662;23.352;2022-09-28T07:47:25;15.27;;;10.52;;
41077;SDS011;26823;42.662;23.352;2022-09-28T07:49:54;16.27;;;11.13;;
41077;SDS011;26823;42.662;23.352;2022-09-28T07:52:21;13.30;;;9.82;;
41077;SDS011;26823;42.662;23.352;2022-09-28T07:54:54;14.77;;;10.27;;
41077;SDS011;26823;42.662;23.352;2022-09-28T07:57:20;18.85;;;10.68;;
41077;SDS011;26823;42.662;23.352;2022-09-28T07:59:47;16.80;;;10.60;;
41077;SDS011;26823;42.662;23.352;2022-09-28T08:02:17;14.82;;;8.45;;
41077;SDS011;26823;42.662;23.352;2022-09-28T08:04:44;12.60;;;8.50;;
41077;SDS011;26823;42.662;23.352;2022-09-28T08:07:10;10.55;;;7.95;;
41077;SDS011;26823;42.662;23.352;2022-09-28T08:09:36;17.80;;;9.85;;
41077;SDS011;26823;42.662;23.352;2022-09-28T08:12:02;15.55;;;9.18;;
41077;SDS011;26823;42.662;23.352;2022-09-28T08:14:28;12.82;;;8.60;;
41077;SDS011;26823;42.662;23.352;2022-09-28T08:16:58;8.63;;;6.43;;
41077;SDS011;26823;42.662;23.352;2022-09-28T08:19:25;7.07;;;4.82;;
41077;SDS011;26823;42.662;23.352;2022-09-28T08:21:50;8.85;;;5.22;;
41077;SDS011;26823;42.662;23.352;2022-09-28T08:24:16;5.22;;;3.92;;
41077;SDS011;26823;42.662;23.352;2022-09-28T08:26:43;5.95;;;4.57;;
41077;SDS011;26823;42.662;23.352;2022-09-28T08:29:09;8.38;;;4.25;;
41077;SDS011;26823;42.662;23.352;2022-09-28T08:31:35;6.93;;;4.65;;
41077;SDS011;26823;42.662;23.352;2022-09-28T08:34:00;8.48;;;5.47;;
41077;SDS011;26823;42.662;23.352;2022-09-28T08:36:26;12.73;;;5.10;;
41077;SDS011;26823;42.662;23.352;2022-09-28T08:38:52;7.18;;;4.70;;
41077;SDS011;26823;42.662;23.352;2022-09-28T08:46:44;8.10;;;3.70;;
41077;SDS011;26823;42.662;23.352;2022-09-28T08:57:13;7.18;;;3.90;;
41077;SDS011;26823;42.662;23.352;2022-09-28T08:59:45;4.65;;;3.65;;
41077;SDS011;26823;42.662;23.352;2022-09-28T09:02:36;6.38;;;4.13;;
41077;SDS011;26823;42.662;23.352;2022-09-28T09:05:04;3.70;;;2.55;;
41077;SDS011;26823;42.662;23.352;2022-09-28T09:13:02;5.63;;;2.53;;
41077;SDS011;26823;42.662;23.352;2022-09-28T09:15:48;3.17;;;2.85;;
41077;SDS011;26823;42.662;23.352;2022-09-28T09:18:35;3.38;;;2.72;;
41077;SDS011;26823;42.662;23.352;2022-09-28T09:21:08;5.03;;;2.78;;
41077;SDS011;26823;42.662;23.352;2022-09-28T09:26:48;2.97;;;2.63;;
41077;SDS011;26823;42.662;23.352;2022-09-28T09:29:36;4.97;;;2.67;;
41077;SDS011;26823;42.662;23.352;2022-09-28T09:32:19;3.15;;;2.50;;
41077;SDS011;26823;42.662;23.352;2022-09-28T09:38:00;4.65;;;2.88;;
41077;SDS011;26823;42.662;23.352;2022-09-28T09:42:55;3.63;;;2.17;;
41077;SDS011;26823;42.662;23.352;2022-09-28T09:48:48;2.85;;;1.92;;
41077;SDS011;26823;42.662;23.352;2022-09-28T09:51:45;3.25;;;1.90;;
41077;SDS011;26823;42.662;23.352;2022-09-28T09:56:39;10.68;;;4.22;;
41077;SDS011;26823;42.662;23.352;2022-09-28T09:59:13;2.72;;;2.50;;
41077;SDS011;26823;42.662;23.352;2022-09-28T10:01:43;3.38;;;2.40;;
41077;SDS011;26823;42.662;23.352;2022-09-28T10:04:52;4.03;;;1.85;;
41077;SDS011;26823;42.662;23.352;2022-09-28T10:07:02;1.45;;;1.13;;
41077;SDS011;26823;42.662;23.352;2022-09-28T10:09:31;2.92;;;1.27;;
41077;SDS011;26823;42.662;23.352;2022-09-28T10:12:00;3.30;;;1.52;;
41077;SDS011;26823;42.662;23.352;2022-09-28T10:14:26;2.78;;;1.85;;
41077;SDS011;26823;42.662;23.352;2022-09-28T10:16:53;3.15;;;1.80;;
41077;SDS011;26823;42.662;23.352;2022-09-28T10:19:24;1.55;;;1.45;;
41077;SDS011;26823;42.662;23.352;2022-09-28T10:21:56;2.92;;;1.70;;
41077;SDS011;26823;42.662;23.352;2022-09-28T10:24:28;2.92;;;2.17;;
41077;SDS011;26823;42.662;23.352;2022-09-28T10:26:58;3.70;;;2.38;;
41077;SDS011;26823;42.662;23.352;2022-09-28T10:29:30;5.00;;;1.77;;
41077;SDS011;26823;42.662;23.352;2022-09-28T10:34:41;2.35;;;1.38;;
41077;SDS011;26823;42.662;23.352;2022-09-28T10:37:08;2.70;;;1.23;;
41077;SDS011;26823;42.662;23.352;2022-09-28T10:39:36;1.73;;;1.10;;
41077;SDS011;26823;42.662;23.352;2022-09-28T10:42:16;2.85;;;1.90;;
41077;SDS011;26823;42.662;23.352;2022-09-28T10:44:53;1.67;;;1.20;;
41077;SDS011;26823;42.662;23.352;2022-09-28T10:47:23;2.92;;;1.95;;
41077;SDS011;26823;42.662;23.352;2022-09-28T10:49:52;2.97;;;1.52;;
41077;SDS011;26823;42.662;23.352;2022-09-28T10:54:56;1.45;;;1.30;;
41077;SDS011;26823;42.662;23.352;2022-09-28T10:57:26;2.35;;;1.15;;
41077;SDS011;26823;42.662;23.352;2022-09-28T11:00:03;2.47;;;1.15;;
41077;SDS011;26823;42.662;23.352;2022-09-28T11:04:59;1.02;;;0.98;;
41077;SDS011;26823;42.662;23.352;2022-09-28T11:07:28;1.73;;;1.13;;
41077;SDS011;26823;42.662;23.352;2022-09-28T11:09:56;3.85;;;1.65;;
41077;SDS011;26823;42.662;23.352;2022-09-28T11:12:27;2.38;;;1.60;;
41077;SDS011;26823;42.662;23.352;2022-09-28T11:15:05;2.35;;;1.55;;
41077;SDS011;26823;42.662;23.352;2022-09-28T11:17:36;0.98;;;0.90;;
41077;SDS011;26823;42.662;23.352;2022-09-28T11:23:34;3.13;;;1.10;;
41077;SDS011;26823;42.662;23.352;2022-09-28T11:25:42;2.33;;;1.40;;
41077;SDS011;26823;42.662;23.352;2022-09-28T11:28:23;1.92;;;1.15;;
41077;SDS011;26823;42.662;23.352;2022-09-28T11:30:52;1.75;;;1.35;;
41077;SDS011;26823;42.662;23.352;2022-09-28T11:33:21;3.65;;;2.10;;
41077;SDS011;26823;42.662;23.352;2022-09-28T11:41:28;1.50;;;1.20;;
41077;SDS011;26823;42.662;23.352;2022-09-28T11:49:35;2.10;;;1.30;;
41077;SDS011;26823;42.662;23.352;2022-09-28T11:52:05;2.80;;;1.20;;
41077;SDS011;26823;42.662;23.352;2022-09-28T11:54:54;2.88;;;1.52;;
41077;SDS011;26823;42.662;23.352;2022-09-28T11:57:41;1.30;;;1.20;;
41077;SDS011;26823;42.662;23.352;2022-09-28T12:02:56;2.30;;;1.17;;
41077;SDS011;26823;42.662;23.352;2022-09-28T12:05:29;3.03;;;1.30;;
41077;SDS011;26823;42.662;23.352;2022-09-28T12:08:12;1.00;;;1.00;;
41077;SDS011;26823;42.662;23.352;2022-09-28T12:13:25;1.30;;;1.08;;
41077;SDS011;26823;42.662;23.352;2022-09-28T12:16:08;3.78;;;1.05;;
41077;SDS011;26823;42.662;23.352;2022-09-28T12:18:53;3.35;;;1.40;;
41077;SDS011;26823;42.662;23.352;2022-09-28T12:23:50;3.70;;;2.33;;
41077;SDS011;26823;42.662;23.352;2022-09-28T12:28:56;1.15;;;1.13;;
41077;SDS011;26823;42.662;23.352;2022-09-28T12:31:28;1.70;;;1.20;;
41077;SDS011;26823;42.662;23.352;2022-09-28T12:33:59;1.55;;;1.30;;
41077;SDS011;26823;42.662;23.352;2022-09-28T12:39:16;1.90;;;1.40;;
41077;SDS011;26823;42.662;23.352;2022-09-28T12:42:05;2.78;;;1.48;;
41077;SDS011;26823;42.662;23.352;2022-09-28T12:44:50;2.83;;;1.20;;
41077;SDS011;26823;42.662;23.352;2022-09-28T12:50:29;2.67;;;1.15;;
41077;SDS011;26823;42.662;23.352;2022-09-28T13:09:25;1.58;;;1.10;;
41077;SDS011;26823;42.662;23.352;2022-09-28T13:17:54;1.90;;;1.13;;
41077;SDS011;26823;42.662;23.352;2022-09-28T13:23:32;4.63;;;1.50;;
41077;SDS011;26823;42.662;23.352;2022-09-28T13:28:52;2.00;;;1.23;;
41077;SDS011;26823;42.662;23.352;2022-09-28T13:31:21;1.35;;;1.20;;
41077;SDS011;26823;42.662;23.352;2022-09-28T13:33:51;3.10;;;1.58;;
41077;SDS011;26823;42.662;23.352;2022-09-28T13:38:50;5.68;;;1.30;;
41077;SDS011;26823;42.662;23.352;2022-09-28T13:41:21;1.40;;;1.17;;
41077;SDS011;26823;42.662;23.352;2022-09-28T13:52:11;1.75;;;1.30;;
41077;SDS011;26823;42.662;23.352;2022-09-28T13:58:00;1.52;;;1.00;;
41077;SDS011;26823;42.662;23.352;2022-09-28T14:00:45;0.88;;;0.88;;
41077;SDS011;26823;42.662;23.352;2022-09-28T14:05:43;10.32;;;1.33;;
41077;SDS011;26823;42.662;23.352;2022-09-28T14:08:21;1.13;;;1.10;;
41077;SDS011;26823;42.662;23.352;2022-09-28T14:11:36;2.22;;;0.93;;
41077;SDS011;26823;42.662;23.352;2022-09-28T14:16:35;1.35;;;0.98;;
41077;SDS011;26823;42.662;23.352;2022-09-28T14:24:16;4.13;;;1.10;;
41077;SDS011;26823;42.662;23.352;2022-09-28T14:29:42;2.53;;;1.00;;
41077;SDS011;26823;42.662;23.352;2022-09-28T14:34:40;1.52;;;0.90;;
41077;SDS011;26823;42.662;23.352;2022-09-28T14:37:26;1.58;;;1.08;;
41077;SDS011;26823;42.662;23.352;2022-09-28T14:40:24;1.65;;;0.90;;
41077;SDS011;26823;42.662;23.352;2022-09-28T14:45:45;1.80;;;1.00;;
41077;SDS011;26823;42.662;23.352;2022-09-28T14:48:12;2.05;;;0.73;;
41077;SDS011;26823;42.662;23.352;2022-09-28T14:50:42;2.47;;;1.55;;
41077;SDS011;26823;42.662;23.352;2022-09-28T14:53:11;2.70;;;1.10;;
41077;SDS011;26823;42.662;23.352;2022-09-28T14:55:52;1.38;;;0.88;;
41077;SDS011;26823;42.662;23.352;2022-09-28T14:58:24;5.85;;;2.40;;
41077;SDS011;26823;42.662;23.352;2022-09-28T15:00:54;2.75;;;1.70;;
41077;SDS011;26823;42.662;23.352;2022-09-28T15:03:26;2.88;;;1.02;;
41077;SDS011;26823;42.662;23.352;2022-09-28T15:05:56;2.03;;;1.42;;
41077;SDS011;26823;42.662;23.352;2022-09-28T15:08:21;3.65;;;1.40;;
41077;SDS011;26823;42.662;23.352;2022-09-28T15:10:49;2.35;;;1.15;;
41077;SDS011;26823;42.662;23.352;2022-09-28T15:13:34;1.58;;;1.05;;
41077;SDS011;26823;42.662;23.352;2022-09-28T15:21:07;1.55;;;1.10;;
41077;SDS011;26823;42.662;23.352;2022-09-28T15:23:36;2.00;;;0.90;;
41077;SDS011;26823;42.662;23.352;2022-09-28T15:26:06;1.75;;;0.60;;
41077;SDS011;26823;42.662;23.352;2022-09-28T15:28:45;1.25;;;0.80;;
41077;SDS011;26823;42.662;23.352;2022-09-28T15:31:15;4.00;;;0.70;;
41077;SDS011;26823;42.662;23.352;2022-09-28T15:33:43;3.90;;;0.80;;
41077;SDS011;26823;42.662;23.352;2022-09-28T15:36:28;5.53;;;0.70;;
41077;SDS011;26823;42.662;23.352;2022-09-28T15:41:23;1.77;;;0.90;;
41077;SDS011;26823;42.662;23.352;2022-09-28T15:44:02;1.90;;;0.50;;
41077;SDS011;26823;42.662;23.352;2022-09-28T15:46:32;1.58;;;0.70;;
41077;SDS011;26823;42.662;23.352;2022-09-28T15:49:10;1.27;;;0.73;;
41077;SDS011;26823;42.662;23.352;2022-09-28T15:52:05;1.52;;;0.80;;
41077;SDS011;26823;42.662;23.352;2022-09-28T15:54:45;4.53;;;1.52;;
41077;SDS011;26823;42.662;23.352;2022-09-28T15:57:30;3.17;;;1.50;;
41077;SDS011;26823;42.662;23.352;2022-09-28T16:00:21;1.88;;;1.23;;
41077;SDS011;26823;42.662;23.352;2022-09-28T16:05:32;1.88;;;0.98;;
41077;SDS011;26823;42.662;23.352;2022-09-28T16:08:10;1.80;;;1.02;;
41077;SDS011;26823;42.662;23.352;2022-09-28T16:10:52;4.15;;;1.10;;
41077;SDS011;26823;42.662;23.352;2022-09-28T16:13:19;1.25;;;0.98;;
41077;SDS011;26823;42.662;23.352;2022-09-28T16:15:48;2.05;;;1.55;;
41077;SDS011;26823;42.662;23.352;2022-09-28T16:18:22;2.47;;;1.30;;
41077;SDS011;26823;42.662;23.352;2022-09-28T16:20:53;1.60;;;0.80;;
41077;SDS011;26823;42.662;23.352;2022-09-28T16:25:50;1.00;;;0.77;;
41077;SDS011;26823;42.662;23.352;2022-09-28T16:31:04;1.80;;;0.70;;
41077;SDS011;26823;42.662;23.352;2022-09-28T16:33:42;1.30;;;0.70;;
41077;SDS011;26823;42.662;23.352;2022-09-28T16:36:11;0.68;;;0.47;;
41077;SDS011;26823;42.662;23.352;2022-09-28T16:38:38;4.10;;;2.50;;
41077;SDS011;26823;42.662;23.352;2022-09-28T16:41:04;3.20;;;1.88;;
41077;SDS011;26823;42.662;23.352;2022-09-28T16:43:31;2.45;;;1.08;;
41077;SDS011;26823;42.662;23.352;2022-09-28T16:45:59;4.03;;;1.90;;
41077;SDS011;26823;42.662;23.352;2022-09-28T16:48:40;4.47;;;2.17;;
41077;SDS011;26823;42.662;23.352;2022-09-28T16:51:18;3.40;;;2.60;;
41077;SDS011;26823;42.662;23.352;2022-09-28T16:53:45;2.70;;;1.70;;
41077;SDS011;26823;42.662;23.352;2022-09-28T16:56:30;5.67;;;2.70;;
41077;SDS011;26823;42.662;23.352;2022-09-28T16:58:57;2.63;;;1.70;;
41077;SDS011;26823;42.662;23.352;2022-09-28T17:01:23;5.80;;;1.90;;
41077;SDS011;26823;42.662;23.352;2022-09-28T17:03:48;3.88;;;1.70;;
41077;SDS011;26823;42.662;23.352;2022-09-28T17:06:15;4.75;;;1.90;;
41077;SDS011;26823;42.662;23.352;2022-09-28T17:08:42;3.85;;;1.48;;
41077;SDS011;26823;42.662;23.352;2022-09-28T17:11:13;0.93;;;0.93;;
41077;SDS011;26823;42.662;23.352;2022-09-28T17:13:41;1.92;;;1.00;;
41077;SDS011;26823;42.662;23.352;2022-09-28T17:16:40;4.63;;;1.63;;
41077;SDS011;26823;42.662;23.352;2022-09-28T17:18:59;2.45;;;2.17;;
41077;SDS011;26823;42.662;23.352;2022-09-28T17:21:25;6.03;;;2.30;;
41077;SDS011;26823;42.662;23.352;2022-09-28T17:23:50;4.05;;;2.47;;
41077;SDS011;26823;42.662;23.352;2022-09-28T17:26:21;4.50;;;2.42;;
41077;SDS011;26823;42.662;23.352;2022-09-28T17:28:54;3.10;;;2.20;;
41077;SDS011;26823;42.662;23.352;2022-09-28T17:31:19;5.88;;;2.30;;
41077;SDS011;26823;42.662;23.352;2022-09-28T17:33:45;2.83;;;2.20;;
41077;SDS011;26823;42.662;23.352;2022-09-28T17:36:14;8.05;;;3.10;;
41077;SDS011;26823;42.662;23.352;2022-09-28T17:38:41;5.07;;;3.13;;
41077;SDS011;26823;42.662;23.352;2022-09-28T17:41:12;7.45;;;4.82;;
41077;SDS011;26823;42.662;23.352;2022-09-28T17:43:39;5.05;;;2.58;;
41077;SDS011;26823;42.662;23.352;2022-09-28T17:46:23;4.28;;;2.53;;
41077;SDS011;26823;42.662;23.352;2022-09-28T17:48:56;2.85;;;1.55;;
41077;SDS011;26823;42.662;23.352;2022-09-28T17:51:28;3.72;;;2.05;;
41077;SDS011;26823;42.662;23.352;2022-09-28T17:53:58;5.28;;;2.40;;
41077;SDS011;26823;42.662;23.352;2022-09-28T17:56:25;6.57;;;2.53;;
41077;SDS011;26823;42.662;23.352;2022-09-28T17:58:51;3.47;;;2.60;;
41077;SDS011;26823;42.662;23.352;2022-09-28T18:01:17;6.75;;;2.60;;
41077;SDS011;26823;42.662;23.352;2022-09-28T18:03:45;4.38;;;2.63;;